Tiempo atmosférico en la estación meteorológica de Viso Del Marqués, Ciudad Real (778 m.)



Fecha
DESCASC
Temp. máxima en grados centígrados (hora)
DESCASC
Temp. mínima en grados centígrados (hora)
DESCASC
Temp. media en grados centígrados
DESCASC
Racha de viento máxima en m/sg (hora)
DESCASC
Velocidad máxima media en intervalos de 10 minutos(hora)
DESCASC
Precipitaciones diarias en mm
DESCASC
Precipitaciones de 00:00 a 06:00 en mm
DESCASC
Precipitaciones de 06:00 a 12:00 en mm
DESCASC
Precipitaciones de 12:00 a 18:00 en mm
DESCASC
Precipitaciones de 18:00 a 24:00 en mm
DESCASC
18-01-2019 8.9 (14:50) -1.9 (09:20) 3.5 5 (15:20) 2.5 (15:20) 0 0 0 0 0
17-01-2019 6.8 (14:10) 0.4 (00:00) 3.6 4.17 (12:50) 2.5 (12:50) 0 0 0 0 0
16-01-2019 9.7 (13:40) 0.5 (00:00) 5.1 6.11 (14:10) 3.89 (12:40) 0 0 0 0 0
15-01-2019 14.6 (16:10) -0.2 (00:00) 7.2 4.17 (16:20) 2.5 (16:20) 0 0 0 0 0
14-01-2019 15.6 (15:40) 0.1 (00:00) 7.9 4.72 (15:20) 3.06 (16:00) 0 0 0 0 0
13-01-2019 12.3 (14:20) -2.4 (-00:0) 5 3.33 (14:30) 2.22 (18:10) 0 0 0 0 0
12-01-2019 9.3 (16:10) -5.9 (-00:0) 1.7 4.72 (14:50) 1.94 (13:40) 0 0 0 0 0
11-01-2019 5.5 (16:20) -5.9 (-00:0) -0.2 6.39 (02:40) 3.89 (02:40) 0 0 0 0 0
10-01-2019 7.5 (15:40) -1.4 (-00:0) 3.1 9.72 (16:40) 6.11 (15:50) 0 0 0 0 0
09-01-2019 12.3 (15:30) -0.1 (00:00) 6.1 5.83 (15:50) 3.33 (14:10) 0 0 0 0 0
08-01-2019 13.6 (16:10) -3.2 (-00:0) 5.2 4.17 (15:20) 2.5 (15:20) 0 0 0 0 0
07-01-2019 11.5 (15:40) -1.3 (-00:0) 5.1 7.5 (17:00) 3.33 (13:50) 0 0 0 0 0
06-01-2019 13.1 (15:10) -2 (-00:0) 5.6 5.56 (14:50) 3.61 (15:00) 0 0 0 0 0
05-01-2019 12.5 (17:30) -2.2 (-00:0) 5.1 3.33 (15:20) 2.22 (15:20) 0 0 0 0 0
04-01-2019 12.9 (15:10) -1.2 (-00:0) 5.8 3.61 (14:00) 2.5 (13:30) 0 0 0 0 0
03-01-2019 14.2 (15:40) -3.4 (-00:0) 5.4 4.44 (13:00) 2.5 (14:40) 0 0 0 0 0
02-01-2019 14.6 (15:30) 0.2 (00:00) 7.4 3.61 (12:50) 2.5 (08:50) 0 0 0 0 0
01-01-2019 16.8 (16:10) 1.9 (00:00) 9.3 4.17 (14:30) 2.5 (14:50) 0 0 0 0 0
31-12-2018 15.7 (17:00) -1.8 (-00:0) 6.9 2.78 (15:20) 1.94 (15:20) 0 0 0 0 0
30-12-2018 13 (16:10) 0.6 (00:00) 6.8 8.61 (13:50) 5.83 (13:50) 0 0 0 0 0
29-12-2018 11.2 (15:10) 0.4 (00:00) 5.8 7.5 (15:30) 4.72 (15:00) 0 0 0 0 0
28-12-2018 7.2 (15:00) 0.6 (00:00) 3.9 7.22 (14:30) 3.61 (13:00) 0 0 0 0 0
27-12-2018 13.7 (16:20) 1.5 (00:00) 7.6 3.33 (04:20) 1.94 (16:30) 0 0 0 0 0
26-12-2018 16.3 (14:30) 2.4 (00:00) 9.3 3.06 (16:00) 1.94 (16:00) 0 0 0 0 0
25-12-2018 14.9 (14:40) 0.8 (00:00) 7.8 3.89 (14:50) 2.22 (14:50) 0 0 0 0 0
24-12-2018 13.4 (14:20) -0.9 (05:30) 6.2 3.33 (16:00) 2.22 (16:00) 0 0 0 0 0
23-12-2018 11.3 (15:50) 0.2 (00:00) 5.8 3.33 (16:00) 2.22 (21:40) 0.1 0.1 0 0 0
22-12-2018 5.9 (16:00) 0.6 (00:00) 3.3 3.06 (06:10) 1.67 (06:00) 0.1 0 0 0 0.1
21-12-2018 14.1 (14:40) -1.6 (06:30) 6.3 3.61 (16:20) 2.22 (16:20) 0 0 0 0 0

Gráficas

Temp. máximas Temp. mínimas Temp. medias Precipitaciones Rachas de viento máximas Velocidades máximas media en intervalos de 10 minutos

Datos horarios

Fecha y hora oficial Temperatura (ºC) Velocidad del viento (km/h) Dirección del viento Racha (km/h) Dirección de racha Precipitación (mm) Presión (hPa) Tendencia (hPa) Humedad (%)
2019-01-19 23:00:00 5.3 14 Sudoeste 32 Sur 0.1 919.2 -1.3 71
2019-01-19 22:00:00 4.9 13 Sudoeste 34 Sudoeste 0 919.9 -0.8 72
2019-01-19 21:00:00 4.3 22 Sudoeste 31 Sudoeste 0 920.1 -0.9 71
2019-01-19 20:00:00 4.9 22 Sudoeste 32 Sudoeste 0 920.5 -0.8 68
2019-01-19 19:00:00 5.4 12 Sur 25 Sur 0 920.7 -1.2 60
2019-01-19 18:00:00 5.7 14 Sur 21 Sur 0 921 -1.5 56
2019-01-19 17:00:00 6.5 14 Sudoeste 21 Sur 0 921.3 -1.6 52
2019-01-19 16:00:00 7.2 12 Sudoeste 23 Sudoeste 0 921.9 -1.7 45
2019-01-19 15:00:00 8.1 17 Oeste 24 Oeste 0 922.5 -2.1 40
2019-01-19 14:00:00 8.9 9 Oeste 24 Oeste 0 922.9 -2.1 39
2019-01-19 13:00:00 8.9 0 Calma 13 Sur 0 923.6 -0.8 37
2019-01-19 12:00:00 7.8 0 Calma 8 Sudoeste 0 924.6 0.3 42
2019-01-19 11:00:00 4.9 2 Norte 5 Norte 0 925 0.6 52
2019-01-19 10:00:00 2.7 0 Calma 6 Norte 0 924.4 0.1 60
2019-01-19 09:00:00 -1 0 Calma 6 Nordeste 0 924.3 0.2 67
2019-01-19 08:00:00 -1.3 0 Calma 4 Nordeste 0 924.4 0.5 65
2019-01-19 07:00:00 -0.4 0 Calma 3 Sur 0 924.3 -0.1 63
2019-01-19 06:00:00 1 0 Calma 2 Nordeste 0 924.1 -0.5 60
2019-01-19 05:00:00 1.4 2 Sur 4 Sur 0 923.9 -0.6 60
2019-01-19 04:00:00 2 3 Sudoeste 4 Sudoeste 0 924.4 -0.8 63
2019-01-19 03:00:00 2.1 4 Oeste 8 Oeste 0 924.6 -0.6 61
2019-01-19 02:00:00 3.2 4 Oeste 10 Oeste 0 924.5 -1.2 58
2019-01-19 01:00:00 2.3 6 Sudoeste 9 Sudoeste 0 925.2 -0.1 58
2019-01-19 00:00:00 2.7 6 Sudoeste 9 Oeste 0 925.2 0.6 54
2019-01-18 23:00:00 3.8 9 Oeste 10 Oeste 0 925.7 0.6 49
2019-01-18 22:00:00 3.8 3 Sudoeste 8 Sudoeste 0 925.3 0.4 45
2019-01-18 21:00:00 3.4 4 Sudoeste 10 Oeste 0 924.6 -0.1 44
2019-01-18 20:00:00 3.9 9 Oeste 14 Oeste 0 925.1 0.4 41
2019-01-18 19:00:00 4.1 3 Sudoeste 9 Oeste 0 924.9 -0.1 38
2019-01-18 18:00:00 6 7 Oeste 13 Noroeste 0 924.7 -0.5 34
2019-01-18 17:00:00 7.2 5 Noroeste 14 Noroeste 0 924.7 -0.7 32
2019-01-18 16:00:00 7.8 5 Noroeste 18 Noroeste 0 925 -0.9 31
2019-01-18 15:00:00 8.2 6 Noroeste 15 Noroeste 0 925.2 -1.7 29
2019-01-18 14:00:00 7.3 5 Noroeste 11 Oeste 0 925.4 -1.1 32
2019-01-18 13:00:00 6.6 4 Noroeste 12 Noroeste 0 925.9 -0.2 35
2019-01-18 12:00:00 5.4 6 Oeste 12 Noroeste 0 926.9 0.5 42
2019-01-18 11:00:00 3.2 8 Noroeste 11 Noroeste 0 926.5 0.6 53
2019-01-18 10:00:00 0.9 3 Sudoeste 7 Oeste 0 926.1 0.5 73
2019-01-18 09:00:00 -0.6 5 Noroeste 7 Noroeste 0 926.4 0.9 72
2019-01-18 08:00:00 -0.4 3 Noroeste 6 Noroeste 0 925.9 0.6 72
2019-01-18 07:00:00 0 2 Oeste 7 Noroeste 0 925.6 -0.3 73
2019-01-18 06:00:00 0.6 6 Oeste 9 Oeste 0 925.5 -0.1 72
2019-01-18 05:00:00 0 3 Sudoeste 9 Oeste 0 925.3 -0.3 72
2019-01-18 04:00:00 1.2 6 Oeste 9 Oeste 0 925.9 -0.1 70
2019-01-18 03:00:00 1.5 4 Noroeste 8 Noroeste 0 925.6 -0.8 73
2019-01-18 02:00:00 0.5 5 Oeste 6 Sudoeste 0 925.6 0.2 72
2019-01-18 01:00:00 1.1 2 Sudoeste 4 Sudoeste 0 926 0.8 70
2019-01-18 00:00:00 1.8 0 Calma 4 Norte 0 926.4 0.7 64
2019-01-17 23:00:00 3.2 0 Calma 8 Nordeste 0 925.4 0.5 59
2019-01-17 22:00:00 3.9 5 Nordeste 13 Norte 0 925.2 0.7 55
2019-01-17 21:00:00 3.9 6 Norte 13 Norte 0 925.7 2 52
2019-01-17 20:00:00 4.5 5 Norte 7 Norte 0 924.9 1.1 49
2019-01-17 19:00:00 5 4 Norte 6 Norte 0 924.5 0.8 49
2019-01-17 18:00:00 5.4 4 Norte 11 Norte 0 923.7 -0.2 48
2019-01-17 17:00:00 5.6 6 Norte 12 Norte 0 923.8 0 48
2019-01-17 16:00:00 5.4 8 Norte 13 Noroeste 0 923.7 -1 48
2019-01-17 15:00:00 5.8 8 Noroeste 13 Noroeste 0 923.9 -1.3 47
2019-01-17 14:00:00 6.2 6 Noroeste 14 Noroeste 0 923.8 -1.3 48
2019-01-17 13:00:00 5.3 9 Noroeste 15 Noroeste 0 924.7 -0.2 55
2019-01-17 12:00:00 5 4 Oeste 11 Sudoeste 0 925.2 1.1 62
2019-01-17 11:00:00 2.7 5 Sudoeste 11 Sudoeste 0 925.1 0.6 70
2019-01-17 10:00:00 2.2 4 Noroeste 10 Noroeste 0 924.9 1.2 69
2019-01-17 09:00:00 2.5 2 Este 7 Nordeste 0 924.1 0.3 67
2019-01-17 08:00:00 2 3 Este 6 Nordeste 0 924.5 0.5 69
2019-01-17 07:00:00 1.8 0 Calma 5 Sur 0 923.7 -0.4 72
2019-01-17 06:00:00 0.5 2 Sudoeste 4 Sudoeste 0 923.8 -0.8 73
2019-01-17 05:00:00 0.6 2 Oeste 5 Sudoeste 0 924 -0.9 70
2019-01-17 04:00:00 1.3 0 Calma 4 Este 0 924.1 -1 67
2019-01-17 03:00:00 2 2 Noroeste 6 Oeste 0 924.6 -0.4 64
2019-01-17 02:00:00 2.2 6 Oeste 7 Oeste 0 924.9 -0.6 65
2019-01-17 01:00:00 2.9 4 Oeste 6 Sudoeste 0 925.1 -0.4 58
2019-01-17 00:00:00 4.5 0 Calma 7 Sudeste 0 925 -0.6 55
2019-01-16 23:00:00 5.1 3 Este 6 Este 0 925.5 0.5 58
2019-01-16 22:00:00 5.6 0 Calma 5 Sur 0 925.5 0.7 55
2019-01-16 21:00:00 5.7 3 Sur 6 Sur 0 925.6 0.7 55
2019-01-16 20:00:00 6.3 5 Noroeste 10 Noroeste 0 925 0.2 52
2019-01-16 19:00:00 6.3 2 Sudoeste 7 Sur 0 924.8 -0.2 51
2019-01-16 18:00:00 6.8 5 Sur 13 Sur 0 924.9 -0.2 47
2019-01-16 17:00:00 7.7 8 Sudoeste 17 Sudoeste 0 924.8 -0.8 43
2019-01-16 16:00:00 7.9 11 Sudoeste 17 Sudoeste 0 925 -1.1 44
2019-01-16 15:00:00 7.6 10 Sudoeste 22 Sudoeste 0 925.1 -1.6 46
2019-01-16 14:00:00 8.4 12 Oeste 21 Sudoeste 0 925.6 -1.6 44
2019-01-16 13:00:00 8.7 13 Sudoeste 21 Sudoeste 0 926.1 -1.1 44